Time;durP1;ratioP1;P1;durP2;ratioP2;P2;SDS_P1;SDS_P2;PMS_P1;PMS_P2;Temp;Humidity;BMP_temperature;BMP_pressure;BME280_temperature;BME280_humidity;BME280_pressure;Samples;Min_cycle;Max_cycle;Signal;HPM_P1;HPM_P2
2024/01/18 00:01:34;;;;;;;2.50;1.70;;;19.90;27.90;;;;;;5104526;28;20450;-54
2024/01/18 00:04:00;;;;;;;3.80;2.22;;;19.90;27.90;;;;;;5085476;28;20328;-56
2024/01/18 00:06:27;;;;;;;1.98;1.73;;;19.90;27.90;;;;;;5101301;28;20027;-56
2024/01/18 00:08:53;;;;;;;2.25;1.67;;;19.80;27.90;;;;;;5106237;28;20051;-55
2024/01/18 00:11:18;;;;;;;2.30;1.95;;;19.90;27.90;;;;;;5105242;28;20108;-54
2024/01/18 00:13:45;;;;;;;1.92;1.50;;;19.80;27.90;;;;;;5104212;28;20123;-54
2024/01/18 00:16:10;;;;;;;2.95;1.80;;;19.80;27.90;;;;;;5102529;28;20027;-57
2024/01/18 00:18:36;;;;;;;2.42;1.42;;;19.80;27.90;;;;;;5106796;28;20515;-56
2024/01/18 00:21:03;;;;;;;2.88;1.70;;;19.80;27.90;;;;;;5107508;28;20347;-58
2024/01/18 00:23:29;;;;;;;2.38;1.60;;;19.80;27.90;;;;;;5109146;28;20024;-56
2024/01/18 00:25:55;;;;;;;2.80;1.73;;;19.80;27.90;;;;;;5114914;28;20034;-56
2024/01/18 00:28:20;;;;;;;2.72;1.80;;;19.80;27.90;;;;;;5116219;28;20038;-55
2024/01/18 00:30:46;;;;;;;3.03;1.83;;;19.80;27.90;;;;;;5115825;28;20024;-54
2024/01/18 00:33:12;;;;;;;3.95;2.03;;;19.80;27.90;;;;;;5111917;28;20032;-56
2024/01/18 00:35:38;;;;;;;2.25;1.55;;;19.80;27.90;;;;;;5113992;28;20024;-54
2024/01/18 00:38:04;;;;;;;2.80;1.52;;;19.80;28.00;;;;;;5098038;28;20039;-55
2024/01/18 00:40:30;;;;;;;2.58;1.80;;;19.80;28.00;;;;;;5115252;28;20469;-53
2024/01/18 00:42:55;;;;;;;3.08;2.20;;;19.70;27.90;;;;;;5113275;28;20085;-54
2024/01/18 00:45:21;;;;;;;2.33;1.50;;;19.70;27.90;;;;;;5116482;28;20092;-56
2024/01/18 00:47:47;;;;;;;2.45;1.67;;;19.70;27.90;;;;;;5114885;28;20039;-56
2024/01/18 00:50:13;;;;;;;2.00;1.60;;;19.70;28.00;;;;;;5110423;28;20518;-56
2024/01/18 00:52:39;;;;;;;2.08;1.70;;;19.70;28.00;;;;;;5113536;28;20020;-55
2024/01/18 00:55:06;;;;;;;3.55;1.80;;;19.70;28.00;;;;;;5115884;28;20050;-56
2024/01/18 00:57:33;;;;;;;2.75;1.65;;;19.70;28.00;;;;;;5115635;28;20434;-55
2024/01/18 00:59:59;;;;;;;2.10;1.50;;;19.70;28.00;;;;;;5114914;28;20071;-55
2024/01/18 01:02:25;;;;;;;2.25;1.60;;;19.60;28.00;;;;;;5114933;27;20031;-54
2024/01/18 01:04:51;;;;;;;2.75;1.60;;;19.70;28.00;;;;;;5114241;28;20024;-56
2024/01/18 01:07:17;;;;;;;2.58;1.70;;;19.60;28.00;;;;;;5110090;27;20027;-55
2024/01/18 01:09:43;;;;;;;3.30;1.77;;;19.70;28.00;;;;;;5100898;28;20081;-55
2024/01/18 01:12:08;;;;;;;1.95;1.52;;;19.70;28.10;;;;;;5104059;28;20027;-55
2024/01/18 01:14:34;;;;;;;2.45;1.88;;;19.60;28.00;;;;;;5110073;28;20430;-55
2024/01/18 01:17:00;;;;;;;2.88;2.00;;;19.70;28.10;;;;;;5115651;28;20028;-52
2024/01/18 01:19:26;;;;;;;3.95;2.22;;;19.60;28.10;;;;;;5095258;28;20441;-57
2024/01/18 01:21:51;;;;;;;2.78;1.73;;;19.60;28.10;;;;;;5112216;28;20039;-56
2024/01/18 01:24:17;;;;;;;3.63;2.00;;;19.60;28.10;;;;;;5112237;28;20114;-55
2024/01/18 01:26:43;;;;;;;2.25;1.70;;;19.60;28.10;;;;;;5115688;28;20019;-55
2024/01/18 01:29:10;;;;;;;4.18;1.80;;;19.60;28.10;;;;;;5115618;28;20111;-55
2024/01/18 01:31:36;;;;;;;2.47;1.70;;;19.60;28.10;;;;;;5110648;28;20015;-57
2024/01/18 01:34:02;;;;;;;3.33;2.13;;;19.60;28.10;;;;;;5120067;27;20024;-57
2024/01/18 01:36:28;;;;;;;2.60;1.73;;;19.60;28.10;;;;;;5115364;28;20055;-55
2024/01/18 01:38:53;;;;;;;2.90;1.88;;;19.50;28.10;;;;;;5115211;28;20040;-56
2024/01/18 01:41:20;;;;;;;3.80;2.13;;;19.50;28.10;;;;;;5112625;28;20047;-56
2024/01/18 01:43:59;;;;;;;3.10;2.08;;;19.50;28.10;;;;;;5109723;28;20028;-56
2024/01/18 01:46:26;;;;;;;2.17;1.60;;;19.50;28.20;;;;;;5109722;28;20070;-55
2024/01/18 01:48:57;;;;;;;2.90;2.13;;;19.50;28.20;;;;;;5108610;28;20338;-54
2024/01/18 01:51:23;;;;;;;3.25;2.10;;;19.50;28.20;;;;;;5108885;27;20104;-52
2024/01/18 01:53:51;;;;;;;3.00;1.90;;;19.50;28.20;;;;;;5110140;28;20016;-55
2024/01/18 01:56:17;;;;;;;3.40;1.90;;;19.50;28.20;;;;;;5106600;28;20450;-53
2024/01/18 01:58:42;;;;;;;3.35;2.08;;;19.50;28.20;;;;;;5111846;28;20028;-51
2024/01/18 02:01:08;;;;;;;3.80;2.28;;;19.50;28.20;;;;;;5093299;28;20054;-53
2024/01/18 02:03:34;;;;;;;2.88;2.10;;;19.50;28.20;;;;;;5108713;28;20103;-54
2024/01/18 02:06:01;;;;;;;2.75;2.08;;;19.50;28.20;;;;;;5108544;28;20076;-53
2024/01/18 02:08:28;;;;;;;4.30;2.00;;;19.40;28.20;;;;;;5106779;28;20476;-56
2024/01/18 02:10:54;;;;;;;3.97;2.58;;;19.40;28.20;;;;;;5108450;28;20063;-55
2024/01/18 02:13:21;;;;;;;2.58;2.08;;;19.40;28.20;;;;;;5109051;28;20032;-52
2024/01/18 02:15:47;;;;;;;3.65;2.22;;;19.40;28.20;;;;;;5109004;28;20069;-53
2024/01/18 02:18:13;;;;;;;3.08;2.28;;;19.40;28.20;;;;;;5104818;28;20020;-54
2024/01/18 02:20:39;;;;;;;2.75;2.00;;;19.40;28.20;;;;;;5105635;28;20047;-57
2024/01/18 02:23:06;;;;;;;3.28;2.22;;;19.40;28.20;;;;;;5110987;28;20537;-55
2024/01/18 02:25:32;;;;;;;3.58;2.30;;;19.40;28.20;;;;;;5109174;28;20024;-57
2024/01/18 02:27:58;;;;;;;3.08;2.25;;;19.40;28.20;;;;;;5103992;28;20031;-56
2024/01/18 02:30:24;;;;;;;2.70;1.85;;;19.40;28.20;;;;;;5112835;28;20028;-57
2024/01/18 02:32:50;;;;;;;2.45;1.85;;;19.40;28.20;;;;;;5110839;28;20019;-56
2024/01/18 02:35:17;;;;;;;2.08;1.80;;;19.30;28.20;;;;;;5101262;28;20051;-55
2024/01/18 02:37:43;;;;;;;3.65;2.22;;;19.40;28.30;;;;;;5107578;28;20040;-57
2024/01/18 02:40:09;;;;;;;2.70;1.90;;;19.30;28.20;;;;;;5105003;28;20082;-56
2024/01/18 02:42:35;;;;;;;3.15;1.92;;;19.40;28.30;;;;;;5109389;28;20346;-56
2024/01/18 02:45:04;;;;;;;2.95;1.70;;;19.40;28.30;;;;;;5105986;27;20027;-55
2024/01/18 02:47:30;;;;;;;3.33;1.90;;;19.30;28.20;;;;;;5105770;28;20028;-54
2024/01/18 02:49:56;;;;;;;3.17;1.77;;;19.30;28.20;;;;;;5104392;28;20046;-55
2024/01/18 02:52:22;;;;;;;2.75;1.80;;;19.30;28.20;;;;;;5102992;28;20107;-55
2024/01/18 02:54:48;;;;;;;2.33;1.70;;;19.30;28.20;;;;;;5105475;28;20110;-57
2024/01/18 02:57:14;;;;;;;2.72;1.98;;;19.30;28.30;;;;;;5105555;28;20021;-53
2024/01/18 02:59:40;;;;;;;3.13;1.70;;;19.30;28.30;;;;;;5102057;28;20045;-54
2024/01/18 03:02:06;;;;;;;2.80;1.63;;;19.30;28.20;;;;;;5106260;28;20051;-52
2024/01/18 03:04:32;;;;;;;2.40;1.70;;;19.30;28.30;;;;;;5107883;28;20482;-56
2024/01/18 03:06:58;;;;;;;2.40;1.75;;;19.30;28.30;;;;;;5107015;28;20034;-56
2024/01/18 03:09:23;;;;;;;2.17;1.40;;;19.20;28.20;;;;;;5102534;28;20051;-53
2024/01/18 03:11:49;;;;;;;2.03;1.52;;;19.30;28.20;;;;;;5106401;28;20304;-52
2024/01/18 03:14:15;;;;;;;1.92;1.50;;;19.20;28.20;;;;;;5101805;28;20020;-56
2024/01/18 03:16:44;;;;;;;1.90;1.50;;;19.20;28.20;;;;;;5105471;28;20089;-56
2024/01/18 03:19:13;;;;;;;2.83;1.90;;;19.30;28.30;;;;;;5107306;28;20350;-55
2024/01/18 03:21:39;;;;;;;1.80;1.30;;;19.20;28.20;;;;;;5109104;28;20464;-56
2024/01/18 03:24:06;;;;;;;1.90;1.45;;;19.20;28.20;;;;;;5107859;28;20034;-55
2024/01/18 03:26:32;;;;;;;1.50;1.10;;;19.20;28.20;;;;;;5106263;28;20034;-52
2024/01/18 03:28:58;;;;;;;2.20;1.45;;;19.20;28.20;;;;;;5108749;28;20035;-56
2024/01/18 03:31:24;;;;;;;2.00;1.23;;;19.20;28.20;;;;;;5101633;28;20023;-55
2024/01/18 03:33:50;;;;;;;1.90;1.25;;;19.20;28.20;;;;;;5086282;28;20385;-53
2024/01/18 03:36:17;;;;;;;3.30;1.80;;;19.20;28.20;;;;;;5104576;28;20043;-54
2024/01/18 03:38:42;;;;;;;1.92;1.10;;;19.20;28.20;;;;;;5103363;28;20044;-55
2024/01/18 03:41:08;;;;;;;2.90;1.38;;;19.20;28.20;;;;;;5106177;28;20054;-52
2024/01/18 03:43:34;;;;;;;1.90;1.20;;;19.20;28.20;;;;;;5109754;28;20038;-55
2024/01/18 03:46:00;;;;;;;2.05;1.17;;;19.20;28.20;;;;;;5106396;28;20102;-54
2024/01/18 03:48:27;;;;;;;1.75;1.27;;;19.20;28.20;;;;;;5092362;28;20119;-54
2024/01/18 03:50:53;;;;;;;1.45;1.08;;;19.10;28.10;;;;;;5106744;28;20039;-53
2024/01/18 03:53:18;;;;;;;1.38;1.00;;;19.10;28.10;;;;;;5108247;28;20015;-56
2024/01/18 03:55:44;;;;;;;2.25;1.30;;;19.10;28.20;;;;;;5083273;28;20124;-54
2024/01/18 03:58:11;;;;;;;1.50;0.98;;;19.10;28.10;;;;;;5105262;28;20035;-54
2024/01/18 04:00:39;;;;;;;1.42;0.98;;;19.10;28.10;;;;;;5096935;28;20036;-55
2024/01/18 04:03:05;;;;;;;1.55;0.98;;;19.10;28.10;;;;;;5103871;28;20080;-55
2024/01/18 04:05:31;;;;;;;1.30;0.90;;;19.10;28.10;;;;;;5109350;28;20047;-56
2024/01/18 04:07:57;;;;;;;2.03;1.10;;;19.10;28.10;;;;;;5111486;28;20027;-56
2024/01/18 04:10:23;;;;;;;2.00;0.80;;;19.10;28.10;;;;;;5110361;28;20100;-56
2024/01/18 04:12:49;;;;;;;1.30;0.80;;;19.10;28.10;;;;;;5106266;28;20024;-53
2024/01/18 04:15:15;;;;;;;2.53;0.88;;;19.10;28.10;;;;;;5106353;28;20362;-53
2024/01/18 04:17:41;;;;;;;2.17;0.80;;;19.10;28.10;;;;;;5105460;28;20031;-55
2024/01/18 04:20:08;;;;;;;1.40;0.60;;;19.00;28.10;;;;;;5093497;28;20032;-55
2024/01/18 04:22:34;;;;;;;1.25;0.75;;;19.00;28.10;;;;;;5112417;28;20031;-52
2024/01/18 04:25:00;;;;;;;1.17;0.60;;;19.10;28.10;;;;;;5109477;28;20050;-51
2024/01/18 04:27:27;;;;;;;1.33;0.70;;;19.10;28.10;;;;;;5108872;28;20050;-54
2024/01/18 04:29:53;;;;;;;1.15;0.70;;;19.00;28.10;;;;;;5106367;28;20438;-55
2024/01/18 04:32:19;;;;;;;1.23;0.60;;;19.00;28.00;;;;;;5110154;28;20024;-56
2024/01/18 04:34:45;;;;;;;1.02;0.60;;;19.00;28.00;;;;;;5110849;28;20453;-54
2024/01/18 04:37:11;;;;;;;1.80;0.80;;;19.00;28.00;;;;;;5092209;28;20114;-52
2024/01/18 04:39:37;;;;;;;0.70;0.50;;;19.00;28.00;;;;;;5111955;28;20353;-55
2024/01/18 04:42:03;;;;;;;1.20;0.60;;;19.00;28.00;;;;;;5093563;28;20107;-56
2024/01/18 04:44:28;;;;;;;1.80;0.80;;;19.00;28.00;;;;;;5107297;28;20016;-55
2024/01/18 04:46:54;;;;;;;1.00;0.60;;;19.00;28.00;;;;;;5103373;28;20698;-54
2024/01/18 04:49:20;;;;;;;1.50;0.55;;;19.00;28.00;;;;;;5104093;28;20342;-56
2024/01/18 04:51:46;;;;;;;0.70;0.60;;;19.00;28.00;;;;;;5105656;28;20023;-55
2024/01/18 04:54:12;;;;;;;1.58;0.70;;;19.00;28.00;;;;;;5103322;28;20500;-57
2024/01/18 04:56:38;;;;;;;1.73;0.70;;;19.00;28.00;;;;;;5104712;28;20047;-56
2024/01/18 04:59:04;;;;;;;2.08;0.40;;;19.00;28.00;;;;;;5108971;28;20024;-54
2024/01/18 05:01:30;;;;;;;1.08;0.70;;;19.00;28.00;;;;;;5102772;28;20127;-52
2024/01/18 05:03:56;;;;;;;0.90;0.50;;;18.90;28.00;;;;;;5106110;28;20038;-55
2024/01/18 05:06:22;;;;;;;1.17;0.70;;;18.90;28.00;;;;;;5110371;28;20028;-54
2024/01/18 05:08:48;;;;;;;0.90;0.57;;;18.90;28.00;;;;;;5113991;28;20032;-55
2024/01/18 05:11:13;;;;;;;0.93;0.57;;;18.90;28.00;;;;;;5090151;28;20099;-57
2024/01/18 05:13:39;;;;;;;0.47;0.40;;;18.90;28.00;;;;;;5110647;28;20032;-54
2024/01/18 05:16:06;;;;;;;1.30;0.65;;;18.90;28.00;;;;;;5110539;28;20027;-58
2024/01/18 05:18:32;;;;;;;0.95;0.55;;;18.90;28.00;;;;;;5108954;28;20077;-59
2024/01/18 05:20:58;;;;;;;0.57;0.47;;;18.90;28.00;;;;;;5111605;28;20481;-56
2024/01/18 05:23:24;;;;;;;0.57;0.40;;;18.90;28.00;;;;;;5113566;28;20019;-58
2024/01/18 05:25:50;;;;;;;1.13;0.60;;;18.90;28.00;;;;;;5088759;28;20088;-58
2024/01/18 05:28:16;;;;;;;1.38;0.63;;;18.90;28.00;;;;;;5107431;28;20031;-57
2024/01/18 05:30:42;;;;;;;0.98;0.60;;;18.80;28.00;;;;;;5111032;28;20019;-55
2024/01/18 05:33:07;;;;;;;1.05;0.60;;;18.90;28.50;;;;;;5102720;28;20107;-54
2024/01/18 05:35:33;;;;;;;1.27;0.65;;;18.90;28.10;;;;;;5107027;28;20452;-55
2024/01/18 05:37:59;;;;;;;1.73;0.80;;;18.90;28.10;;;;;;5101845;28;20051;-55
2024/01/18 05:40:25;;;;;;;1.20;0.75;;;18.80;28.10;;;;;;5112165;28;20090;-55
2024/01/18 05:42:51;;;;;;;2.08;0.73;;;18.80;28.10;;;;;;5108153;28;20016;-55
2024/01/18 05:45:16;;;;;;;2.33;0.80;;;18.80;28.10;;;;;;5109811;28;20047;-56
2024/01/18 05:47:42;;;;;;;1.05;0.60;;;18.80;28.10;;;;;;5109159;28;20024;-57
2024/01/18 05:50:09;;;;;;;2.10;1.08;;;18.80;28.20;;;;;;5123478;27;20137;-57
2024/01/18 05:52:35;;;;;;;1.70;0.70;;;18.80;28.20;;;;;;5109248;28;20049;-56
2024/01/18 05:55:01;;;;;;;0.77;0.60;;;18.80;28.20;;;;;;5115308;27;20039;-54
2024/01/18 05:57:37;;;;;;;1.63;0.82;;;18.80;28.20;;;;;;5106485;28;20023;-54
2024/01/18 06:00:05;;;;;;;0.70;0.50;;;18.80;28.20;;;;;;5108505;28;20051;-59
2024/01/18 06:02:31;;;;;;;2.78;0.80;;;18.80;28.20;;;;;;5108751;28;20031;-54
2024/01/18 06:04:57;;;;;;;3.05;0.82;;;18.80;28.20;;;;;;5109878;27;20472;-58
2024/01/18 06:07:24;;;;;;;1.60;0.70;;;18.80;28.20;;;;;;5107976;27;20028;-54
2024/01/18 06:09:50;;;;;;;1.83;0.88;;;18.80;28.20;;;;;;5110152;28;20123;-54
2024/01/18 06:12:20;;;;;;;1.90;1.02;;;18.80;28.20;;;;;;5109468;28;20450;-58
2024/01/18 06:14:45;;;;;;;1.58;0.80;;;18.80;28.20;;;;;;5107903;28;20415;-54
2024/01/18 06:17:11;;;;;;;1.60;0.70;;;18.80;28.20;;;;;;5107331;28;20019;-54
2024/01/18 06:19:37;;;;;;;2.45;0.80;;;18.80;28.30;;;;;;5109834;28;20030;-54
2024/01/18 06:22:03;;;;;;;1.75;0.70;;;18.70;28.20;;;;;;5108387;28;20122;-55
2024/01/18 06:24:28;;;;;;;1.63;0.85;;;18.70;28.30;;;;;;5107449;28;20059;-54
2024/01/18 06:26:55;;;;;;;1.90;0.90;;;18.70;28.30;;;;;;5106210;28;20024;-54
2024/01/18 06:29:26;;;;;;;1.88;1.25;;;18.70;28.30;;;;;;5106934;27;20023;-58
2024/01/18 06:31:53;;;;;;;2.70;0.90;;;18.70;28.30;;;;;;5107587;28;20023;-58
2024/01/18 06:34:18;;;;;;;1.88;1.00;;;18.70;28.30;;;;;;5107292;28;20121;-57
2024/01/18 06:36:45;;;;;;;1.55;0.88;;;18.70;28.30;;;;;;5108818;28;20027;-58
2024/01/18 06:39:10;;;;;;;1.83;0.98;;;18.70;28.30;;;;;;5105384;28;20044;-58
2024/01/18 06:41:36;;;;;;;1.30;0.77;;;18.70;28.30;;;;;;5109652;28;20654;-57
2024/01/18 06:44:02;;;;;;;1.40;0.80;;;18.70;28.80;;;;;;5107785;28;20023;-57
2024/01/18 06:46:29;;;;;;;1.55;0.88;;;18.70;28.30;;;;;;5105235;28;20020;-55
2024/01/18 06:48:57;;;;;;;1.67;0.80;;;18.60;28.30;;;;;;5106355;27;20051;-56
2024/01/18 06:51:23;;;;;;;1.42;0.63;;;18.70;28.30;;;;;;5107413;28;20102;-58
2024/01/18 06:53:52;;;;;;;0.57;0.45;;;18.70;28.30;;;;;;5108967;28;20026;-57
2024/01/18 06:56:20;;;;;;;0.68;0.60;;;18.60;28.30;;;;;;5106143;28;20133;-57
2024/01/18 06:58:53;;;;;;;3.20;0.80;;;18.70;28.30;;;;;;5089033;27;20027;-59
2024/01/18 07:01:19;;;;;;;1.65;0.80;;;18.60;28.30;;;;;;5106425;27;20039;-59
2024/01/18 07:03:44;;;;;;;0.88;0.60;;;18.60;28.30;;;;;;5107743;28;20027;-57
2024/01/18 07:06:11;;;;;;;1.17;0.73;;;18.60;28.30;;;;;;5108643;28;20073;-57
2024/01/18 07:08:37;;;;;;;1.88;0.77;;;18.60;28.30;;;;;;5109422;27;20027;-58
2024/01/18 07:11:04;;;;;;;0.98;0.60;;;18.60;28.30;;;;;;5107728;27;20043;-58
2024/01/18 07:13:30;;;;;;;1.58;0.70;;;18.60;28.30;;;;;;5107673;28;20320;-57
2024/01/18 07:15:55;;;;;;;1.05;0.60;;;18.60;28.30;;;;;;5106045;28;20031;-52
2024/01/18 07:18:21;;;;;;;2.17;0.88;;;18.60;28.30;;;;;;5107522;28;20020;-55
2024/01/18 07:20:47;;;;;;;1.30;0.57;;;18.60;28.40;;;;;;5113061;28;20548;-51
2024/01/18 07:23:13;;;;;;;1.73;0.70;;;18.60;28.40;;;;;;5114165;28;20054;-50
2024/01/18 07:25:39;;;;;;;1.20;0.60;;;18.60;28.40;;;;;;5114244;28;20028;-53
2024/01/18 07:28:05;;;;;;;1.27;0.50;;;18.60;28.40;;;;;;5112137;28;20096;-55
2024/01/18 07:30:31;;;;;;;1.02;0.50;;;18.50;28.40;;;;;;5113836;28;20027;-51
2024/01/18 07:32:57;;;;;;;1.52;0.82;;;18.50;28.40;;;;;;5114340;28;20362;-53
2024/01/18 07:35:23;;;;;;;0.95;0.60;;;18.50;28.40;;;;;;5113974;28;20023;-51
2024/01/18 07:37:49;;;;;;;1.35;0.68;;;18.50;28.40;;;;;;5096041;28;20050;-56
2024/01/18 07:40:15;;;;;;;0.77;0.50;;;18.50;28.40;;;;;;5113082;28;20335;-53
2024/01/18 07:42:40;;;;;;;1.15;0.55;;;18.50;28.40;;;;;;5112728;28;20055;-56
2024/01/18 07:45:07;;;;;;;1.38;0.60;;;18.50;28.40;;;;;;5113585;28;20058;-53
2024/01/18 07:47:33;;;;;;;0.73;0.55;;;18.50;28.50;;;;;;5111923;28;20031;-57
2024/01/18 07:49:59;;;;;;;2.28;0.60;;;18.50;28.50;;;;;;5114226;28;20066;-57
2024/01/18 07:52:25;;;;;;;1.70;0.70;;;18.50;28.50;;;;;;5114096;28;20054;-56
2024/01/18 07:54:51;;;;;;;1.70;0.60;;;18.50;28.50;;;;;;5113587;28;20019;-56
2024/01/18 07:57:17;;;;;;;1.75;0.68;;;18.50;28.50;;;;;;5095375;28;20020;-55
2024/01/18 07:59:43;;;;;;;0.77;0.50;;;18.50;28.50;;;;;;5113498;28;20035;-55
2024/01/18 08:02:09;;;;;;;1.33;0.73;;;18.50;28.50;;;;;;5114117;28;20027;-54
2024/01/18 08:04:35;;;;;;;0.55;0.50;;;18.50;28.50;;;;;;5113446;28;20081;-54
2024/01/18 08:07:01;;;;;;;1.42;0.65;;;18.50;28.50;;;;;;5112807;28;20370;-55
2024/01/18 08:09:26;;;;;;;1.38;0.68;;;18.50;28.50;;;;;;5113404;28;20106;-55
2024/01/18 08:11:52;;;;;;;1.15;0.90;;;18.50;28.50;;;;;;5113467;28;20047;-53
2024/01/18 08:14:18;;;;;;;1.27;1.00;;;18.50;28.50;;;;;;5112883;28;20052;-56
2024/01/18 08:16:44;;;;;;;1.70;0.95;;;18.50;28.50;;;;;;5113172;28;20019;-56
2024/01/18 08:19:10;;;;;;;1.17;0.75;;;18.50;28.50;;;;;;5095517;28;20042;-52
2024/01/18 08:21:43;;;;;;;2.17;0.90;;;18.50;28.50;;;;;;5113267;28;20035;-54
2024/01/18 08:24:09;;;;;;;1.90;0.77;;;18.50;28.40;;;;;;5111500;28;20088;-53
2024/01/18 08:26:34;;;;;;;0.70;0.70;;;18.50;28.40;;;;;;5113616;28;20542;-55
2024/01/18 08:29:00;;;;;;;1.35;0.85;;;18.50;28.40;;;;;;5113281;28;20442;-55
2024/01/18 08:31:27;;;;;;;1.17;0.65;;;18.50;28.40;;;;;;5107335;28;20053;-55
2024/01/18 08:33:53;;;;;;;1.58;0.73;;;18.50;28.40;;;;;;5112054;28;20038;-54
2024/01/18 08:36:19;;;;;;;0.95;0.60;;;18.50;28.40;;;;;;5113486;28;20119;-51
2024/01/18 08:38:45;;;;;;;3.28;0.90;;;18.50;28.40;;;;;;5112591;28;20047;-53
2024/01/18 08:41:11;;;;;;;1.70;0.80;;;18.50;28.40;;;;;;5097130;28;20043;-55
2024/01/18 08:43:37;;;;;;;2.28;0.73;;;18.50;28.40;;;;;;5117213;28;20503;-55
2024/01/18 08:46:06;;;;;;;1.52;0.82;;;18.50;28.40;;;;;;5117198;28;20107;-52
2024/01/18 08:48:35;;;;;;;1.67;0.98;;;18.50;28.40;;;;;;5117133;28;20031;-52
2024/01/18 08:51:02;;;;;;;2.08;0.85;;;18.50;28.40;;;;;;5117220;28;20102;-54
2024/01/18 08:53:28;;;;;;;1.17;0.80;;;18.50;28.50;;;;;;5116284;28;20027;-51
2024/01/18 08:55:54;;;;;;;1.88;0.90;;;18.50;28.50;;;;;;5116763;28;20328;-54
2024/01/18 08:58:20;;;;;;;1.55;0.90;;;18.50;28.50;;;;;;5118375;28;20053;-53
2024/01/18 09:00:45;;;;;;;1.98;0.75;;;18.50;28.60;;;;;;5099672;28;20061;-53
2024/01/18 09:03:11;;;;;;;1.90;0.73;;;18.50;28.60;;;;;;5117588;28;20465;-56
2024/01/18 09:05:37;;;;;;;0.82;0.50;;;18.50;28.70;;;;;;5099510;28;20077;-52
2024/01/18 09:08:03;;;;;;;1.65;0.80;;;18.50;28.70;;;;;;5116497;28;20031;-54
2024/01/18 09:10:29;;;;;;;2.30;0.70;;;18.50;28.70;;;;;;5117564;28;20039;-50
2024/01/18 09:12:55;;;;;;;2.38;0.93;;;18.50;28.70;;;;;;5117119;28;20027;-54
2024/01/18 09:15:22;;;;;;;1.77;0.75;;;18.60;28.70;;;;;;5097893;28;20446;-56
2024/01/18 09:17:47;;;;;;;2.25;0.98;;;18.60;28.70;;;;;;5116794;28;20035;-54
2024/01/18 09:20:13;;;;;;;1.75;0.70;;;18.60;28.60;;;;;;5116672;28;20032;-54
2024/01/18 09:22:40;;;;;;;1.52;0.60;;;18.70;28.70;;;;;;5116805;28;20023;-54
2024/01/18 09:25:06;;;;;;;2.67;0.70;;;18.70;28.60;;;;;;5116851;28;20038;-53
2024/01/18 09:27:32;;;;;;;1.48;0.65;;;18.80;28.60;;;;;;5116625;28;20035;-57
2024/01/18 09:29:58;;;;;;;1.55;0.50;;;18.90;28.60;;;;;;5116395;28;20024;-53
2024/01/18 09:32:25;;;;;;;1.33;0.60;;;18.90;28.60;;;;;;5116748;28;20415;-54
2024/01/18 09:34:51;;;;;;;1.40;0.68;;;19.00;28.50;;;;;;5115124;28;20032;-58
2024/01/18 09:37:20;;;;;;;0.55;0.43;;;19.10;28.50;;;;;;5097080;28;20043;-56
2024/01/18 09:39:46;;;;;;;1.90;0.52;;;19.10;28.40;;;;;;5114357;28;20385;-54
2024/01/18 09:42:17;;;;;;;1.15;0.68;;;19.20;28.40;;;;;;5114300;28;20028;-57
2024/01/18 09:44:48;;;;;;;1.67;0.60;;;19.30;28.30;;;;;;5115132;28;20046;-54
2024/01/18 09:47:18;;;;;;;0.82;0.40;;;19.40;28.30;;;;;;5111980;28;20474;-57
2024/01/18 09:49:45;;;;;;;1.50;0.40;;;19.50;28.30;;;;;;5095885;28;20381;-55
2024/01/18 09:52:12;;;;;;;2.13;0.63;;;19.50;28.30;;;;;;5096490;28;20028;-53
2024/01/18 09:54:38;;;;;;;3.50;0.95;;;19.60;28.20;;;;;;5115810;28;20458;-53
2024/01/18 09:57:07;;;;;;;2.05;0.80;;;19.70;28.20;;;;;;5115638;28;20046;-53
2024/01/18 09:59:38;;;;;;;1.60;0.70;;;19.80;28.20;;;;;;5114960;28;20047;-55
2024/01/18 10:02:04;;;;;;;0.88;0.50;;;19.80;28.10;;;;;;5114789;28;20058;-54
2024/01/18 10:04:31;;;;;;;2.00;0.70;;;19.90;28.10;;;;;;5115760;28;20015;-56
2024/01/18 10:06:57;;;;;;;1.52;0.80;;;19.90;28.10;;;;;;5098287;28;20031;-57
2024/01/18 10:09:23;;;;;;;1.90;0.60;;;19.90;28.00;;;;;;5115899;28;20522;-57
2024/01/18 10:11:48;;;;;;;1.20;0.50;;;20.00;28.00;;;;;;5115568;28;20028;-57
2024/01/18 10:14:15;;;;;;;1.05;0.57;;;20.10;28.00;;;;;;5116171;28;20023;-53
2024/01/18 10:16:41;;;;;;;1.20;0.60;;;20.10;27.90;;;;;;5115538;28;20032;-56
2024/01/18 10:19:17;;;;;;;1.17;0.55;;;20.20;27.90;;;;;;5115749;28;20489;-57
2024/01/18 10:21:44;;;;;;;0.77;0.50;;;20.20;27.90;;;;;;5114019;28;20031;-57
2024/01/18 10:24:12;;;;;;;1.33;0.50;;;20.30;27.80;;;;;;5115645;28;20051;-55
2024/01/18 10:26:38;;;;;;;0.95;0.47;;;20.30;27.80;;;;;;5115038;28;20450;-57
2024/01/18 10:29:09;;;;;;;0.82;0.43;;;20.30;27.70;;;;;;5114090;28;20034;-58
2024/01/18 10:31:39;;;;;;;0.65;0.35;;;20.40;27.80;;;;;;5113797;28;21266;-55
2024/01/18 10:34:06;;;;;;;1.67;0.55;;;20.40;27.80;;;;;;5114599;28;20038;-55
2024/01/18 10:36:38;;;;;;;0.65;0.30;;;20.40;27.80;;;;;;5114334;28;20088;-51
2024/01/18 10:39:18;;;;;;;1.13;0.50;;;20.40;27.80;;;;;;5114860;28;20048;-56
2024/01/18 10:41:45;;;;;;;1.25;0.55;;;20.40;27.80;;;;;;5112747;28;20116;-57
2024/01/18 10:44:16;;;;;;;0.88;0.43;;;20.40;27.80;;;;;;5115289;28;20024;-52
2024/01/18 10:46:42;;;;;;;1.35;0.60;;;20.40;27.80;;;;;;5113422;28;20089;-57
2024/01/18 10:49:10;;;;;;;1.33;0.60;;;20.40;27.70;;;;;;5115083;28;20046;-56
2024/01/18 10:51:39;;;;;;;0.98;0.40;;;20.40;27.70;;;;;;5114903;28;20023;-52
2024/01/18 10:54:10;;;;;;;1.00;0.55;;;20.40;27.70;;;;;;5114386;28;20071;-55
2024/01/18 10:56:38;;;;;;;0.85;0.40;;;20.40;27.60;;;;;;5114630;28;20544;-56
2024/01/18 10:59:06;;;;;;;1.48;0.50;;;20.40;27.60;;;;;;5114806;28;20047;-57
2024/01/18 11:01:33;;;;;;;0.65;0.40;;;20.40;27.60;;;;;;5112959;28;20067;-55
2024/01/18 11:04:00;;;;;;;1.17;0.63;;;20.40;27.60;;;;;;5114669;28;20028;-57
2024/01/18 11:06:27;;;;;;;1.17;0.65;;;20.40;27.50;;;;;;5114851;28;20073;-55
2024/01/18 11:08:54;;;;;;;0.68;0.47;;;20.40;27.50;;;;;;5096613;28;20456;-56
2024/01/18 11:11:20;;;;;;;1.25;0.60;;;20.40;27.60;;;;;;5114290;28;20062;-52
2024/01/18 11:13:47;;;;;;;1.40;0.60;;;20.40;27.50;;;;;;5113590;28;20024;-51
2024/01/18 11:16:13;;;;;;;1.00;0.60;;;20.40;27.50;;;;;;5113778;28;20036;-55
2024/01/18 11:18:39;;;;;;;1.30;0.70;;;20.40;27.50;;;;;;5113896;28;20019;-57
2024/01/18 11:21:06;;;;;;;0.88;0.43;;;20.40;27.50;;;;;;5113561;28;20352;-55
2024/01/18 11:23:36;;;;;;;2.15;0.70;;;20.30;27.50;;;;;;5113849;28;20027;-60
2024/01/18 11:26:04;;;;;;;2.75;0.63;;;20.30;27.50;;;;;;5113597;28;20024;-56
2024/01/18 11:28:31;;;;;;;0.95;0.60;;;20.30;27.70;;;;;;5114150;28;20453;-59
2024/01/18 11:30:57;;;;;;;1.25;0.70;;;20.30;27.90;;;;;;5114053;28;20059;-56
2024/01/18 11:33:23;;;;;;;1.65;0.73;;;20.30;28.10;;;;;;5114127;28;20019;-58
2024/01/18 11:35:49;;;;;;;1.23;0.50;;;20.30;28.10;;;;;;5114362;28;20068;-59
2024/01/18 11:38:25;;;;;;;1.42;0.60;;;20.30;28.10;;;;;;5113148;28;20142;-57
2024/01/18 11:40:56;;;;;;;2.08;0.60;;;20.30;28.10;;;;;;5112934;28;20047;-59
2024/01/18 11:43:23;;;;;;;1.63;0.60;;;20.20;28.10;;;;;;5113685;28;20046;-58
2024/01/18 11:45:52;;;;;;;1.63;0.70;;;20.20;28.10;;;;;;5112030;28;20031;-57
2024/01/18 11:48:20;;;;;;;1.17;0.50;;;20.20;28.00;;;;;;5113793;28;20030;-59
2024/01/18 11:50:46;;;;;;;1.75;0.60;;;20.20;28.00;;;;;;5113786;28;20027;-60
2024/01/18 11:53:14;;;;;;;0.60;0.40;;;20.20;28.00;;;;;;5113689;28;20032;-58
2024/01/18 11:55:51;;;;;;;1.27;0.60;;;20.20;27.90;;;;;;5095164;28;20455;-57
2024/01/18 11:58:17;;;;;;;1.73;0.70;;;20.20;27.90;;;;;;5111873;28;20023;-57
2024/01/18 12:00:43;;;;;;;1.55;0.40;;;20.10;27.90;;;;;;5113607;28;20032;-59
2024/01/18 12:03:32;;;;;;;0.93;0.60;;;20.10;27.90;;;;;;5113557;28;20024;-58
2024/01/18 12:05:58;;;;;;;0.95;0.40;;;20.10;27.90;;;;;;5110961;28;20061;-59
2024/01/18 12:08:24;;;;;;;1.65;0.77;;;20.10;28.00;;;;;;5112373;28;20024;-58
2024/01/18 12:10:51;;;;;;;0.68;0.43;;;20.10;28.00;;;;;;5113709;28;20049;-58
2024/01/18 12:13:18;;;;;;;1.20;0.50;;;20.10;28.00;;;;;;5112877;28;20036;-56
2024/01/18 12:15:45;;;;;;;1.77;0.40;;;20.10;28.00;;;;;;5112346;28;20435;-58
2024/01/18 12:18:11;;;;;;;0.77;0.50;;;20.10;27.90;;;;;;5112276;28;20101;-52
2024/01/18 12:20:42;;;;;;;1.10;0.40;;;20.10;28.10;;;;;;5114423;28;20035;-53
2024/01/18 12:23:15;;;;;;;1.08;0.45;;;20.10;28.60;;;;;;5112098;28;20366;-57
2024/01/18 12:25:43;;;;;;;1.05;0.50;;;20.10;29.00;;;;;;5112471;28;20030;-58
2024/01/18 12:28:11;;;;;;;0.77;0.40;;;20.10;29.20;;;;;;5113263;28;20031;-58
2024/01/18 12:30:42;;;;;;;1.00;0.52;;;20.10;29.30;;;;;;5095471;28;20031;-59
2024/01/18 12:33:09;;;;;;;0.35;0.35;;;20.10;29.30;;;;;;5113045;28;20038;-60
2024/01/18 12:35:38;;;;;;;0.68;0.47;;;20.10;29.20;;;;;;5112166;28;20035;-58
2024/01/18 12:38:04;;;;;;;0.80;0.50;;;20.10;29.20;;;;;;5111900;28;20378;-60
2024/01/18 12:40:30;;;;;;;2.22;0.80;;;20.10;29.10;;;;;;5095908;28;20039;-58
2024/01/18 12:43:03;;;;;;;0.90;0.57;;;20.10;29.00;;;;;;5114350;28;20409;-58
2024/01/18 12:45:29;;;;;;;1.30;0.55;;;20.10;28.90;;;;;;5113535;28;20027;-57